Flag for USA

Past Weather in 36°28'41.1"N, 88°52'15.4"W, USA — Yesterday and Last 2 Weeks

Currently: 55 °F. Overcast. (Weather station: Paris Henry County Airport, USA). See more current weather

Past Weather in 36°28'41.1"N, 88°52'15.4"W — Graph

°F

36°28'41.1"N, 88°52'15.4"W Temperature Yesterday

Maximum temperature yesterday: 55 °F (at 1:35 pm)
Minimum temperature yesterday: 27 °F (at 12:15 am)
Average temperature yesterday: 41 °F

High & Low Weather Summary for the Past Weeks

 TemperatureHumidityPressure
High66 °F (Jan 17, 12:55 pm)100% (Jan 16, 11:35 am)30.35 "Hg (Jan 16, 11:35 am)
Low25 °F (Jan 21, 5:35 am)24% (Jan 15, 2:35 pm)29.61 "Hg (Jan 18, 7:35 pm)
Average42 °F76%30.05 "Hg
* Reported Jan 13 12:35 pm — Jan 28 12:10 pm, 36°28'41.1"N, 88°52'15.4"W. Weather by CustomWeather, © 2023

Note: Actual official high and low records may vary slightly from our data, if they occured in-between our weather recording intervals... More about our weather records

36°28'41.1"N, 88°52'15.4"W Weather History for the Previous 24 Hours

Scroll right to see more
 ConditionsComfort  
Time TempWeatherWind HumidityBarometerVisibility
12:10 pm
Sat, Jan 28
52 °FOvercast.14 mph47%30.21 "Hg10 mi
11:50 am52 °FOvercast.14 mph47%30.23 "Hg10 mi
11:35 am52 °FOvercast.14 mph47%30.22 "Hg10 mi
11:15 am50 °FOvercast.13 mph50%30.23 "Hg10 mi
10:55 am52 °FOvercast.10 mph47%30.25 "Hg10 mi
10:10 am52 °FPartly sunny.14 mph47%30.27 "Hg10 mi
9:55 am50 °FPassing clouds.12 mph50%30.27 "Hg10 mi
9:35 am48 °FSunny.14 mph50%30.27 "Hg10 mi
9:10 am46 °FSunny.12 mph53%30.27 "Hg10 mi
8:15 am43 °FSunny.9 mph61%30.26 "Hg10 mi
7:55 am41 °FSunny.8 mph66%30.26 "Hg10 mi
7:35 am39 °FSunny.8 mph70%30.25 "Hg10 mi
7:15 am37 °FSunny.8 mph70%30.25 "Hg10 mi
6:55 am37 °FClear.9 mph70%30.24 "Hg10 mi
6:10 am37 °FClear.9 mph70%30.24 "Hg10 mi
5:55 am37 °FClear.9 mph70%30.24 "Hg10 mi
5:35 am37 °FClear.8 mph70%30.24 "Hg10 mi
4:55 am39 °FClear.9 mph70%30.23 "Hg10 mi
4:15 am37 °FClear.8 mph70%30.23 "Hg10 mi
3:55 am37 °FClear.7 mph70%30.22 "Hg10 mi
3:35 am39 °FClear.8 mph65%30.22 "Hg10 mi
3:15 am39 °FClear.8 mph65%30.22 "Hg10 mi
2:55 am39 °FClear.9 mph65%30.22 "Hg10 mi
2:35 am39 °FClear.9 mph65%30.22 "Hg10 mi
2:15 am39 °FClear.8 mph65%30.21 "Hg10 mi
1:55 am41 °FClear.8 mph61%30.21 "Hg10 mi
1:35 am43 °FClear.9 mph57%30.21 "Hg10 mi
12:55 am43 °FClear.13 mph57%30.20 "Hg10 mi
12:15 am45 °FClear.10 mph53%30.20 "Hg10 mi
11:55 pm
Fri, Jan 27
45 °FClear.13 mph57%30.19 "Hg10 mi
11:35 pm45 °FClear.15 mph57%30.19 "Hg10 mi
11:15 pm45 °FClear.15 mph57%30.19 "Hg10 mi
10:55 pm45 °FClear.16 mph57%30.19 "Hg10 mi
10:35 pm45 °FClear.15 mph57%30.19 "Hg10 mi
9:55 pm45 °FClear.15 mph53%30.18 "Hg10 mi
9:35 pm45 °FClear.14 mph53%30.18 "Hg10 mi
9:15 pm45 °FClear.12 mph53%30.18 "Hg10 mi
8:55 pm46 °FClear.13 mph50%30.17 "Hg10 mi
8:35 pm45 °FClear.14 mph49%30.17 "Hg10 mi
8:15 pm45 °FClear.10 mph49%30.16 "Hg10 mi
7:55 pm46 °FClear.13 mph46%30.14 "Hg10 mi
7:35 pm46 °FClear.13 mph46%30.14 "Hg10 mi
7:15 pm46 °FClear.13 mph50%30.14 "Hg10 mi
6:55 pm46 °FClear.13 mph50%30.14 "Hg10 mi
5:35 pm48 °FClear.15 mph43%30.11 "Hg10 mi
4:55 pm52 °FSunny.15 mph38%30.09 "Hg10 mi
4:15 pm54 °FSunny.22 mph35%30.10 "Hg10 mi
3:55 pm54 °FSunny.21 mph35%30.09 "Hg10 mi
3:35 pm54 °FSunny.24 mph35%30.09 "Hg10 mi
2:55 pm55 °FSunny.25 mph33%30.08 "Hg10 mi
2:35 pm55 °FSunny.26 mph33%30.08 "Hg10 mi
1:55 pm54 °FSunny.23 mph38%30.08 "Hg10 mi
1:35 pm55 °FSunny.28 mph36%30.08 "Hg10 mi
1:15 pm54 °FSunny.26 mph38%30.09 "Hg10 mi
Weather by CustomWeather, © 2023

See weather overview